Terminal Aerodrome Forecast
Issued by NWS

Home | Current Version | Previous Version | Text Only | Print | Product List | Glossary On
Versions: 1 2 3 4 5 6 7 8 9 10 11 12
000
FTUS42 TJSJ 272339
TAFJMZ
TAF
TJMZ 272339Z 2800/2824 VRB04KT P6SM VCSH FEW030 SCT070 SCT120
     FM280600 10006KT P6SM FEW040
     FM281530 VRB10KT P6SM VCTS SCT025 BKN040CB
     FM282300 06006KT P6SM VCSH SCT040
      AMD NOT SKED=

USA.gov is the U.S. government's official web portal to all federal, state and local government web resources and services.